Warren, MN (56762)

1:55 PM CDT on September 03, 2015 (GMT -0500)
Grand Forks International | | Change Station
CLOSE
Current Station
Airport
Location: Grand Forks,
Elevation: 843 ft
Nearby Weather Stations

Elev 843 ft 47.95 °N, 97.18 °W | Updated 1 hour ago

Partly Cloudy
Partly Cloudy
86 °F
Feels Like 92 °F
N
23
Wind Variable Wind from SSE
Gusts 31 mph

Today
High -- | Low -- °F
--% Chance of Precip.
Yesterday
High -- | Low -- °F
Precip. -- in
6:47 AM 8:04 PM
Waning Gibbous, 68% visible
Pressure 29.72 in
Visibility 10.0 miles
Clouds Few 2500 ft
Heat Index 92 °F
Dew Point 71 °F
Humidity 61%
Rainfall 0.00 in
Snow Depth Not available.
UV 7 out of 12
Pollen 11.70 out of 12
Air Quality Not available.
Flu Activity Not available.
METAR KGFK 031753Z 16020G27KT 10SM FEW025 30/22 A2973 RMK AO2 PK WND 15028/1742 SLP062 T03000217 10300 20217 58013
Pressure 29.72 in
Visibility 10.0 miles
Clouds Few 2500 ft
Heat Index 92 °F
Dew Point 71 °F
Humidity 61%
Rainfall 0.00 in
Snow Depth Not available.
UV 7 out of 12
Pollen 11.70 out of 12
Air Quality Not available.
Flu Activity Not available.
METAR KGFK 031753Z 16020G27KT 10SM FEW025 30/22 A2973 RMK AO2 PK WND 15028/1742 SLP062 T03000217 10300 20217 58013

10-Day Weather Forecast

×

Almanac

Astronomy

Sep. 03, 2015 Rise Set
Actual Time
Civil Twilight
Nautical Twilight
Astronomical Twilight
Moon
Length of Visible Light
Length of Day
Tomorrow will be .
, % of the Moon is Illuminated

Today's Extremes

State Highs State Lows

Community

WunderPhotos

Upload Photos

1,852,001 photos uploaded!

WunderBlogs® & News

Nearby

Air Quality

  Air Quality AQ Index Pollutant
Not available.

Snow Depth

Station Depth Elevation

Earthquake Activity

City Distance Mag. Time & Date
Minimum magnitude displayed is 2.5.

Coastal Water Temperatures

Place Temperature

Stations

Nearby Weather Stations

Station Location Temp. Windchill Dew Point Humidity Wind Precip. Elev Updated Type